createdAt,value
2018-11-28T00:00:12.067Z,16.10
2018-11-28T00:02:40.579Z,16.67
2018-11-28T00:05:10.759Z,14.23
2018-11-28T00:07:39.282Z,12.67
2018-11-28T00:10:11.348Z,14.80
2018-11-28T00:12:40.169Z,13.97
2018-11-28T00:15:10.988Z,12.27
2018-11-28T00:17:39.665Z,14.77
2018-11-28T00:20:12.842Z,15.30
2018-11-28T00:22:41.666Z,14.13
2018-11-28T00:25:11.180Z,14.57
2018-11-28T00:27:39.731Z,14.57
2018-11-28T00:30:15.092Z,13.90
2018-11-28T00:32:43.763Z,16.77
2018-11-28T00:35:13.389Z,17.50
2018-11-28T00:37:42.013Z,13.70
2018-11-28T00:40:11.779Z,14.27
2018-11-28T00:42:40.789Z,18.43
2018-11-28T00:45:11.544Z,15.10
2018-11-28T00:47:40.264Z,12.70
2018-11-28T00:50:10.660Z,9.97
2018-11-28T00:52:39.403Z,16.20
2018-11-28T00:55:10.516Z,15.63
2018-11-28T00:57:39.335Z,14.00
2018-11-28T01:00:11.428Z,16.17
2018-11-28T01:02:39.917Z,13.37
2018-11-28T01:05:09.983Z,14.63
2018-11-28T01:07:38.701Z,15.03
2018-11-28T01:10:11.835Z,14.70
2018-11-28T01:12:40.433Z,15.77
2018-11-28T01:15:11.120Z,15.97
2018-11-28T01:17:39.706Z,14.07
2018-11-28T01:20:10.846Z,15.43
2018-11-28T01:22:39.331Z,14.23
2018-11-28T01:25:09.149Z,12.63
2018-11-28T01:27:37.791Z,15.33
2018-11-28T01:30:09.351Z,12.93
2018-11-28T01:32:37.927Z,13.97
2018-11-28T01:35:08.245Z,13.27
2018-11-28T01:37:36.861Z,14.97
2018-11-28T01:40:07.401Z,17.70
2018-11-28T01:42:35.969Z,13.97
2018-11-28T01:45:04.917Z,13.97
2018-11-28T01:47:33.446Z,13.50
2018-11-28T01:50:02.011Z,15.40
2018-11-28T01:52:30.655Z,16.23
2018-11-28T01:54:59.248Z,15.40
2018-11-28T01:57:28.019Z,13.33
2018-11-28T01:59:56.581Z,18.80
2018-11-28T02:02:25.113Z,15.13
2018-11-28T02:04:53.781Z,18.80
2018-11-28T02:07:22.325Z,15.70
2018-11-28T02:09:51.046Z,12.87
2018-11-28T02:12:19.668Z,18.67
2018-11-28T02:14:48.212Z,14.97
2018-11-28T02:17:16.820Z,15.90
2018-11-28T02:19:45.385Z,13.77
2018-11-28T02:22:13.932Z,12.30
2018-11-28T02:24:42.449Z,17.13
2018-11-28T02:27:10.908Z,15.13
2018-11-28T02:29:39.468Z,15.23
2018-11-28T02:32:08.064Z,17.47
2018-11-28T02:34:37.404Z,16.30
2018-11-28T02:37:06.151Z,14.00
2018-11-28T02:39:34.738Z,13.43
2018-11-28T02:42:03.279Z,15.13
2018-11-28T02:44:31.923Z,12.67
2018-11-28T02:47:00.661Z,15.27
2018-11-28T02:49:29.244Z,17.47
2018-11-28T02:51:57.837Z,15.20
2018-11-28T02:54:26.305Z,18.23
2018-11-28T02:56:55.766Z,16.13
2018-11-28T02:59:24.403Z,14.43
2018-11-28T03:01:53.015Z,18.67
2018-11-28T03:04:21.554Z,13.23
2018-11-28T03:06:49.985Z,17.87
2018-11-28T03:09:18.463Z,15.00
2018-11-28T03:11:46.886Z,17.70
2018-11-28T03:14:15.403Z,16.37
2018-11-28T03:16:43.991Z,16.23
2018-11-28T03:19:12.465Z,19.03
2018-11-28T03:21:40.959Z,18.07
2018-11-28T03:24:09.489Z,17.50
2018-11-28T03:26:37.981Z,17.57
2018-11-28T03:29:06.608Z,17.53
2018-11-28T03:31:35.151Z,13.90
2018-11-28T03:34:03.643Z,15.93
2018-11-28T03:36:33.006Z,15.23
2018-11-28T03:39:01.503Z,16.00
2018-11-28T03:41:30.270Z,15.83
2018-11-28T03:43:58.768Z,14.83
2018-11-28T03:46:27.418Z,18.00
2018-11-28T03:48:55.874Z,16.27
2018-11-28T03:51:24.376Z,15.40
2018-11-28T03:53:53.013Z,16.03
2018-11-28T03:56:21.522Z,16.90
2018-11-28T03:58:49.986Z,16.27
2018-11-28T04:01:18.583Z,18.77
2018-11-28T04:03:47.088Z,17.33
2018-11-28T04:06:15.520Z,13.23
2018-11-28T04:08:44.015Z,14.83
2018-11-28T04:11:13.931Z,13.90
2018-11-28T04:13:42.427Z,14.60
2018-11-28T04:16:11.019Z,14.73
2018-11-28T04:18:39.540Z,17.00
2018-11-28T04:21:08.162Z,18.47
2018-11-28T04:23:36.712Z,13.30
2018-11-28T04:26:05.319Z,14.03
2018-11-28T04:28:33.932Z,17.33
2018-11-28T04:31:02.457Z,12.47
2018-11-28T04:33:31.106Z,17.80
2018-11-28T04:35:59.563Z,15.80
2018-11-28T04:38:29.368Z,21.40
2018-11-28T04:40:56.877Z,15.20
2018-11-28T04:43:25.429Z,19.30
2018-11-28T04:45:53.928Z,16.90
2018-11-28T04:48:22.435Z,16.50
2018-11-28T04:50:50.919Z,15.57
2018-11-28T04:53:19.875Z,19.90
2018-11-28T04:55:48.380Z,15.10
2018-11-28T04:58:17.368Z,18.30
2018-11-28T05:00:45.919Z,17.73
2018-11-28T05:03:14.401Z,19.93
2018-11-28T05:05:42.917Z,20.03
2018-11-28T05:08:11.427Z,17.80
2018-11-28T05:10:40.206Z,18.27
2018-11-28T05:13:08.831Z,11.70
2018-11-28T05:15:37.352Z,15.37
2018-11-28T05:18:06.200Z,15.60
2018-11-28T05:20:35.022Z,15.87
2018-11-28T05:23:04.895Z,17.73
2018-11-28T05:25:34.203Z,18.10
2018-11-28T05:28:02.920Z,15.37
2018-11-28T05:30:32.269Z,16.03
2018-11-28T05:33:01.395Z,15.13
2018-11-28T05:35:35.075Z,16.40
2018-11-28T05:38:09.428Z,18.73
2018-11-28T05:40:37.910Z,15.37
2018-11-28T05:43:07.005Z,17.00
2018-11-28T05:45:35.862Z,12.80
2018-11-28T05:48:04.532Z,14.70
2018-11-28T05:50:34.675Z,15.07
2018-11-28T05:53:03.146Z,18.93
2018-11-28T05:55:31.639Z,20.00
2018-11-28T05:58:00.127Z,18.80
2018-11-28T06:00:32.895Z,16.47
2018-11-28T06:03:01.656Z,20.40
2018-11-28T06:05:30.922Z,19.70
2018-11-28T06:07:59.624Z,18.67
2018-11-28T06:10:29.112Z,14.37
2018-11-28T06:12:58.155Z,17.17
2018-11-28T06:15:26.850Z,18.87
2018-11-28T06:17:55.571Z,20.83
2018-11-28T06:20:24.847Z,20.33
2018-11-28T06:22:54.113Z,18.50
2018-11-28T06:25:22.843Z,19.27
2018-11-28T06:27:51.629Z,18.97
2018-11-28T06:30:21.269Z,17.07
2018-11-28T06:32:51.492Z,15.33
2018-11-28T06:35:18.779Z,19.33
2018-11-28T06:37:47.824Z,13.67
2018-11-28T06:40:23.689Z,19.43
2018-11-28T06:42:47.496Z,16.03
2018-11-28T06:45:19.598Z,17.33
2018-11-28T06:47:48.996Z,18.00
2018-11-28T06:50:18.592Z,18.03
2018-11-28T06:52:49.498Z,19.50
2018-11-28T06:55:20.880Z,15.77
2018-11-28T06:57:49.518Z,15.73
2018-11-28T07:00:20.793Z,15.77
2018-11-28T07:02:50.505Z,17.83
2018-11-28T07:05:19.354Z,16.27
2018-11-28T07:07:48.641Z,16.20
2018-11-28T07:10:19.286Z,14.37
2018-11-28T07:12:47.980Z,21.47
2018-11-28T07:15:18.723Z,14.30
2018-11-28T07:17:48.128Z,17.00
2018-11-28T07:20:17.529Z,17.13
2018-11-28T07:22:46.234Z,17.53
2018-11-28T07:25:19.197Z,14.10
2018-11-28T07:27:48.865Z,21.83
2018-11-28T07:30:19.562Z,18.00
2018-11-28T07:32:49.418Z,13.83
2018-11-28T07:35:18.223Z,19.47
2018-11-28T07:37:47.221Z,13.33
2018-11-28T07:40:17.704Z,18.30
2018-11-28T07:42:49.081Z,17.33
2018-11-28T07:45:18.391Z,14.80
2018-11-28T07:47:47.206Z,16.43
2018-11-28T07:50:16.421Z,14.80
2018-11-28T07:52:45.531Z,17.60
2018-11-28T07:55:14.304Z,17.37
2018-11-28T07:57:43.226Z,15.37
2018-11-28T08:00:14.315Z,18.77
2018-11-28T08:02:44.434Z,17.80
2018-11-28T08:05:13.392Z,19.57
2018-11-28T08:07:42.888Z,16.17
2018-11-28T08:10:19.361Z,18.47
2018-11-28T08:12:48.804Z,15.80
2018-11-28T08:15:17.657Z,18.50
2018-11-28T08:17:46.620Z,18.53
2018-11-28T08:20:15.985Z,16.07
2018-11-28T08:22:46.322Z,17.03
2018-11-28T08:25:16.226Z,19.47
2018-11-28T08:27:46.055Z,17.07
2018-11-28T08:30:20.730Z,16.63
2018-11-28T08:32:49.772Z,19.40
2018-11-28T08:35:18.819Z,21.07
2018-11-28T08:37:48.130Z,17.97
2018-11-28T08:40:17.881Z,15.87
2018-11-28T08:42:46.633Z,19.90
2018-11-28T08:45:16.268Z,11.83
2018-11-28T08:47:46.008Z,13.23
2018-11-28T08:50:16.271Z,18.67
2018-11-28T08:52:45.020Z,19.47
2018-11-28T08:55:14.271Z,12.37
2018-11-28T08:57:43.082Z,16.57
2018-11-28T09:00:17.794Z,16.60
2018-11-28T09:02:47.437Z,19.70
2018-11-28T09:05:16.757Z,15.93
2018-11-28T09:07:45.693Z,14.80
2018-11-28T09:10:15.253Z,17.23
2018-11-28T09:12:44.278Z,15.60
2018-11-28T09:15:14.331Z,15.83
2018-11-28T09:17:42.983Z,17.37
2018-11-28T09:20:13.863Z,13.13
2018-11-28T09:22:42.673Z,14.97
2018-11-28T09:25:16.514Z,20.20
2018-11-28T09:27:52.867Z,14.57
2018-11-28T09:30:21.565Z,16.53
2018-11-28T09:32:51.033Z,17.67
2018-11-28T09:35:20.141Z,18.07
2018-11-28T09:37:49.627Z,15.00
2018-11-28T09:40:23.580Z,18.67
2018-11-28T09:42:53.403Z,20.07
2018-11-28T09:45:22.271Z,17.17
2018-11-28T09:47:51.086Z,20.10
2018-11-28T09:50:21.871Z,18.53
2018-11-28T09:52:50.678Z,20.93
2018-11-28T09:55:20.701Z,14.57
2018-11-28T09:57:49.656Z,15.13
2018-11-28T10:00:20.899Z,17.93
2018-11-28T10:02:50.781Z,18.17
2018-11-28T10:05:21.919Z,18.77
2018-11-28T10:07:50.758Z,11.70
2018-11-28T10:10:20.186Z,15.13
2018-11-28T10:12:49.281Z,18.70
2018-11-28T10:15:19.285Z,18.90
2018-11-28T10:17:48.378Z,21.43
2018-11-28T10:20:18.055Z,17.00
2018-11-28T10:22:48.119Z,18.50
2018-11-28T10:25:32.310Z,17.37
2018-11-28T10:28:04.711Z,17.57
2018-11-28T10:30:38.090Z,17.90
2018-11-28T10:33:10.506Z,18.70
2018-11-28T10:35:40.440Z,17.57
2018-11-28T10:38:09.340Z,16.10
2018-11-28T10:40:38.434Z,17.77
2018-11-28T10:43:08.824Z,20.90
2018-11-28T10:45:38.414Z,17.23
2018-11-28T10:48:09.522Z,11.33
2018-11-28T10:50:38.280Z,15.97
2018-11-28T10:53:07.376Z,13.53
2018-11-28T10:55:36.056Z,19.00
2018-11-28T10:58:05.722Z,18.53
2018-11-28T11:00:39.642Z,14.70
2018-11-28T11:03:13.871Z,17.83
2018-11-28T11:05:47.907Z,18.30
2018-11-28T11:08:22.414Z,13.67
2018-11-28T11:11:00.539Z,15.30
2018-11-28T11:13:35.531Z,14.33
2018-11-28T11:16:04.981Z,15.83
2018-11-28T11:18:33.863Z,14.73
2018-11-28T11:21:03.420Z,15.20
2018-11-28T11:23:32.203Z,16.87
2018-11-28T11:26:01.439Z,14.03
2018-11-28T11:28:30.058Z,16.93
2018-11-28T11:30:59.729Z,14.37
2018-11-28T11:33:28.646Z,17.60
2018-11-28T11:35:57.700Z,17.50
2018-11-28T11:38:26.539Z,14.80
2018-11-28T11:40:55.327Z,18.73
2018-11-28T11:43:24.723Z,14.53
2018-11-28T11:45:54.071Z,14.43
2018-11-28T11:48:22.941Z,14.97
2018-11-28T11:50:52.650Z,17.80
2018-11-28T11:53:22.592Z,19.47
2018-11-28T11:55:51.888Z,14.00
2018-11-28T11:58:21.582Z,13.63
2018-11-28T12:00:50.644Z,16.70
2018-11-28T12:03:20.246Z,15.57
2018-11-28T12:05:56.893Z,14.87
2018-11-28T12:08:27.407Z,14.30
2018-11-28T12:10:56.648Z,12.80
2018-11-28T12:13:25.858Z,14.80
2018-11-28T12:15:54.722Z,17.40
2018-11-28T12:18:24.432Z,15.40
2018-11-28T12:20:56.798Z,15.37
2018-11-28T12:23:25.764Z,15.27
2018-11-28T12:25:55.264Z,15.63
2018-11-28T12:28:24.503Z,14.83
2018-11-28T12:30:53.086Z,15.10
2018-11-28T12:33:21.604Z,16.80
2018-11-28T12:35:50.582Z,16.40
2018-11-28T12:38:19.157Z,14.80
2018-11-28T12:40:47.710Z,15.87
2018-11-28T12:43:17.096Z,15.00
2018-11-28T12:45:47.667Z,13.87
2018-11-28T12:48:16.623Z,13.40
2018-11-28T12:50:45.411Z,14.57
2018-11-28T12:53:14.538Z,12.97
2018-11-28T12:55:43.267Z,15.47
2018-11-28T12:58:13.856Z,14.13
2018-11-28T13:00:42.379Z,11.60
2018-11-28T13:03:12.473Z,12.20
2018-11-28T13:05:41.921Z,19.53
2018-11-28T13:08:10.598Z,13.03
2018-11-28T13:10:40.285Z,13.17
2018-11-28T13:13:10.011Z,16.87
2018-11-28T13:15:39.540Z,13.63
2018-11-28T13:18:09.307Z,15.87
2018-11-28T13:20:38.394Z,14.80
2018-11-28T13:23:08.260Z,13.30
2018-11-28T13:25:37.030Z,11.20
2018-11-28T13:28:05.903Z,13.47
2018-11-28T13:30:35.206Z,12.10
2018-11-28T13:33:04.821Z,14.10
2018-11-28T13:35:33.377Z,14.20
2018-11-28T13:38:06.350Z,14.77
2018-11-28T13:40:35.003Z,14.10
2018-11-28T13:43:03.495Z,11.63
2018-11-28T13:45:33.582Z,13.83
2018-11-28T13:48:02.268Z,13.80
2018-11-28T13:50:31.055Z,12.87
2018-11-28T13:53:01.125Z,14.17
2018-11-28T13:55:38.065Z,12.50
2018-11-28T13:58:04.831Z,12.97
2018-11-28T14:00:33.593Z,13.40
2018-11-28T14:03:02.334Z,13.07
2018-11-28T14:05:30.994Z,12.30
2018-11-28T14:07:59.680Z,9.97
2018-11-28T14:10:28.256Z,16.50
2018-11-28T14:12:56.779Z,12.10
2018-11-28T14:15:25.787Z,13.73
2018-11-28T14:17:57.544Z,12.83
2018-11-28T14:20:26.002Z,10.43
2018-11-28T14:22:54.548Z,11.60
2018-11-28T14:25:23.916Z,12.60
2018-11-28T14:27:51.826Z,13.80
2018-11-28T14:30:21.593Z,11.83
2018-11-28T14:32:51.089Z,12.70
2018-11-28T14:35:19.926Z,11.93
2018-11-28T14:37:48.556Z,15.60
2018-11-28T14:40:18.391Z,11.07
2018-11-28T14:42:49.052Z,12.60
2018-11-28T14:45:29.355Z,10.47
2018-11-28T14:47:57.870Z,13.00
2018-11-28T14:50:27.985Z,9.53
2018-11-28T14:52:57.871Z,8.83
2018-11-28T14:55:29.621Z,10.50
2018-11-28T14:57:58.165Z,11.43
2018-11-28T15:00:29.791Z,10.20
2018-11-28T15:03:01.429Z,11.50
2018-11-28T15:05:33.524Z,10.97
2018-11-28T15:08:04.757Z,12.13
2018-11-28T15:10:48.641Z,9.63
2018-11-28T15:13:17.106Z,11.53
2018-11-28T15:15:45.639Z,11.00
2018-11-28T15:18:14.108Z,12.23
2018-11-28T15:20:42.673Z,11.33
2018-11-28T15:23:11.155Z,9.30
2018-11-28T15:25:39.654Z,11.30
2018-11-28T15:28:08.101Z,13.07
2018-11-28T15:30:36.625Z,12.77
2018-11-28T15:33:05.240Z,13.00
2018-11-28T15:35:33.763Z,11.00
2018-11-28T15:38:02.388Z,13.87
2018-11-28T15:40:30.903Z,12.27
2018-11-28T15:42:59.364Z,13.90
2018-11-28T15:45:27.868Z,12.63
2018-11-28T15:47:56.396Z,14.37
2018-11-28T15:50:24.989Z,9.70
2018-11-28T15:52:53.512Z,14.00
2018-11-28T15:55:22.073Z,14.20
2018-11-28T15:57:50.734Z,12.40
2018-11-28T16:00:24.163Z,14.03
2018-11-28T16:02:52.964Z,14.97
2018-11-28T16:05:21.540Z,14.23
2018-11-28T16:07:50.498Z,17.57
2018-11-28T16:10:24.079Z,18.13
2018-11-28T16:12:53.179Z,16.43
2018-11-28T16:15:23.142Z,17.93
2018-11-28T16:17:51.728Z,18.67
2018-11-28T16:20:20.276Z,21.70
2018-11-28T16:22:48.812Z,21.47
2018-11-28T16:25:17.336Z,18.23
2018-11-28T16:27:45.843Z,21.50
2018-11-28T16:30:15.420Z,25.10
2018-11-28T16:32:45.163Z,26.13
2018-11-28T16:35:14.946Z,22.13
2018-11-28T16:37:43.524Z,25.27
2018-11-28T16:40:15.073Z,22.40
2018-11-28T16:42:43.975Z,23.00
2018-11-28T16:45:18.641Z,23.43
2018-11-28T16:47:47.557Z,22.33
2018-11-28T16:50:16.986Z,26.23
2018-11-28T16:52:45.747Z,20.80
2018-11-28T16:55:16.639Z,28.53
2018-11-28T16:57:50.711Z,21.70
2018-11-28T17:00:22.262Z,24.80
2018-11-28T17:02:51.419Z,24.50
2018-11-28T17:05:21.203Z,21.70
2018-11-28T17:07:50.447Z,23.93
2018-11-28T17:10:20.618Z,22.13
2018-11-28T17:12:50.190Z,26.63
2018-11-28T17:15:19.510Z,26.00
2018-11-28T17:17:48.380Z,27.57
2018-11-28T17:20:18.234Z,29.63
2018-11-28T17:22:47.044Z,30.70
2018-11-28T17:25:24.859Z,25.57
2018-11-28T17:27:53.340Z,17.40
2018-11-28T17:30:23.331Z,24.60
2018-11-28T17:32:51.887Z,21.93
2018-11-28T17:35:20.470Z,27.77
2018-11-28T17:37:49.032Z,28.40
2018-11-28T17:40:19.679Z,28.70
2018-11-28T17:42:49.609Z,28.67
2018-11-28T17:45:18.754Z,26.33
2018-11-28T17:47:47.415Z,26.53
2018-11-28T17:50:24.587Z,24.37
2018-11-28T17:53:11.103Z,18.67
2018-11-28T17:55:45.267Z,22.10
2018-11-28T17:58:13.785Z,22.97
2018-11-28T18:00:42.291Z,27.90
2018-11-28T18:03:11.391Z,25.83
2018-11-28T18:05:39.991Z,19.07
2018-11-28T18:08:10.148Z,26.57
2018-11-28T18:10:38.966Z,23.80
2018-11-28T18:13:14.142Z,16.67
2018-11-28T18:15:45.453Z,25.33
2018-11-28T18:18:15.635Z,27.63
2018-11-28T18:20:44.172Z,21.23
2018-11-28T18:23:12.762Z,23.60
2018-11-28T18:25:41.905Z,16.00
2018-11-28T18:28:11.596Z,21.87
2018-11-28T18:30:42.236Z,21.20
2018-11-28T18:33:12.328Z,23.93
2018-11-28T18:35:44.336Z,20.03
2018-11-28T18:38:13.785Z,23.23
2018-11-28T18:40:43.288Z,20.00
2018-11-28T18:43:13.261Z,20.80
2018-11-28T18:45:44.468Z,26.13
2018-11-28T18:48:13.715Z,21.63
2018-11-28T18:50:42.261Z,21.37
2018-11-28T18:53:11.318Z,22.67
2018-11-28T18:55:39.879Z,22.20
2018-11-28T18:58:09.939Z,23.20
2018-11-28T19:00:38.487Z,16.90
2018-11-28T19:03:07.842Z,17.37
2018-11-28T19:05:36.499Z,18.83
2018-11-28T19:08:05.525Z,21.10
2018-11-28T19:10:34.229Z,20.73
2018-11-28T19:13:03.348Z,21.13
2018-11-28T19:15:31.878Z,16.80
2018-11-28T19:18:00.421Z,21.87
2018-11-28T19:20:28.900Z,16.27
2018-11-28T19:22:57.947Z,17.50
2018-11-28T19:25:28.167Z,16.50
2018-11-28T19:27:56.718Z,17.73
2018-11-28T19:30:33.856Z,21.73
2018-11-28T19:33:02.411Z,14.97
2018-11-28T19:35:30.916Z,19.43
2018-11-28T19:37:59.759Z,15.60
2018-11-28T19:40:38.319Z,16.27
2018-11-28T19:43:07.448Z,16.60
2018-11-28T19:45:35.984Z,15.73
2018-11-28T19:48:04.493Z,14.20
2018-11-28T19:50:34.252Z,16.57
2018-11-28T19:53:02.794Z,19.10
2018-11-28T19:55:31.301Z,17.83
2018-11-28T19:57:59.768Z,16.17
2018-11-28T20:00:28.237Z,16.50
2018-11-28T20:02:56.816Z,19.43
2018-11-28T20:05:26.360Z,18.30
2018-11-28T20:07:55.383Z,15.17
2018-11-28T20:10:24.184Z,16.20
2018-11-28T20:12:52.724Z,17.17
2018-11-28T20:15:23.675Z,18.80
2018-11-28T20:17:52.212Z,16.60
2018-11-28T20:20:21.231Z,19.33
2018-11-28T20:22:49.859Z,19.50
2018-11-28T20:25:19.394Z,13.90
2018-11-28T20:27:49.592Z,14.13
2018-11-28T20:30:31.920Z,16.07
2018-11-28T20:33:01.342Z,16.17
2018-11-28T20:35:29.941Z,18.87
2018-11-28T20:37:58.473Z,17.73
2018-11-28T20:40:27.229Z,16.63
2018-11-28T20:42:56.512Z,16.47
2018-11-28T20:45:25.644Z,14.70
2018-11-28T20:47:56.972Z,17.10
2018-11-28T20:50:28.431Z,11.87
2018-11-28T20:53:00.013Z,13.07
2018-11-28T20:55:28.850Z,15.87
2018-11-28T20:57:57.765Z,17.07
2018-11-28T21:00:26.864Z,15.33
2018-11-28T21:02:57.077Z,15.73
2018-11-28T21:05:26.611Z,14.57
2018-11-28T21:07:55.708Z,12.43
2018-11-28T21:10:29.944Z,17.03
2018-11-28T21:12:59.380Z,15.37
2018-11-28T21:15:30.326Z,12.53
2018-11-28T21:17:59.366Z,16.93
2018-11-28T21:20:29.181Z,14.77
2018-11-28T21:23:01.675Z,13.27
2018-11-28T21:25:30.932Z,15.03
2018-11-28T21:28:00.637Z,13.67
2018-11-28T21:30:31.567Z,15.17
2018-11-28T21:33:00.184Z,12.47
2018-11-28T21:35:33.368Z,14.53
2018-11-28T21:38:03.601Z,12.67
2018-11-28T21:40:33.780Z,14.83
2018-11-28T21:43:03.504Z,13.57
2018-11-28T21:45:33.530Z,13.47
2018-11-28T21:48:02.958Z,15.17
2018-11-28T21:50:34.405Z,13.77
2018-11-28T21:53:03.947Z,15.07
2018-11-28T21:55:32.652Z,10.57
2018-11-28T21:58:02.198Z,11.87
2018-11-28T22:00:31.688Z,12.10
2018-11-28T22:03:00.965Z,14.97
2018-11-28T22:05:29.891Z,15.13
2018-11-28T22:07:59.760Z,11.30
2018-11-28T22:10:28.727Z,13.80
2018-11-28T22:12:58.506Z,13.10
2018-11-28T22:15:27.750Z,12.70
2018-11-28T22:17:59.168Z,14.57
2018-11-28T22:20:28.307Z,12.53
2018-11-28T22:22:57.244Z,10.30
2018-11-28T22:25:28.017Z,11.07
2018-11-28T22:27:56.770Z,12.43
2018-11-28T22:30:28.718Z,12.70
2018-11-28T22:32:58.079Z,10.63
2018-11-28T22:35:27.109Z,12.63
2018-11-28T22:37:56.827Z,12.67
2018-11-28T22:40:28.148Z,11.17
2018-11-28T22:42:57.512Z,13.13
2018-11-28T22:48:28.539Z,11.53
2018-11-28T22:50:57.188Z,9.70
2018-11-28T22:53:25.684Z,14.17
2018-11-28T22:55:54.208Z,13.57
2018-11-28T22:58:22.683Z,12.07
2018-11-28T23:00:56.521Z,8.10
2018-11-28T23:03:25.024Z,11.13
2018-11-28T23:05:53.519Z,12.60
2018-11-28T23:08:22.291Z,11.20
2018-11-28T23:10:51.883Z,10.50
2018-11-28T23:13:21.930Z,9.73
2018-11-28T23:15:50.396Z,10.50
2018-11-28T23:18:18.878Z,10.30
2018-11-28T23:20:47.478Z,10.87
2018-11-28T23:23:15.940Z,10.03
2018-11-28T23:25:44.449Z,8.53
2018-11-28T23:28:13.011Z,8.87
2018-11-28T23:30:41.461Z,9.20
2018-11-28T23:33:10.320Z,7.80
2018-11-28T23:35:38.824Z,8.20
2018-11-28T23:38:07.944Z,10.37
2018-11-28T23:40:36.420Z,9.03
2018-11-28T23:43:05.139Z,7.87
2018-11-28T23:45:33.806Z,8.77
2018-11-28T23:48:02.381Z,8.93
2018-11-28T23:50:30.879Z,9.07
2018-11-28T23:52:59.466Z,8.70
2018-11-28T23:55:30.045Z,9.23
2018-11-28T23:57:58.582Z,8.53
